Vingaren — OZ2131 — position and weather

sailwx.info

Track history (hours):
 
Tides and Currents Weather Stations Pressure Air Temp Water Temp Dewpoint Dewpoint Depression Visibility Wind Speed Wind Dir Waves Ship Positions

Vingaren

Last reported at 2017-May-27 03:52 UTC. Time now 2017-May-27 04:20 UTC.
Position N 59°45' E 028°14'.

Length 89 m; draft 3.8 m.

Type: Cargo ship. MMSI: 231844000.

Date/timePositionNaut miles runAvg speedWind from/ knotsBaromVisibWave heightAir tempDewpointWater temp
2017-May-27 03:52N 59°45' E 028°14'0 0.0
2017-May-27 03:25N 59°45' E 028°14'0 0.0
2017-May-27 02:55N 59°45' E 028°14'0 0.0
2017-May-27 02:25N 59°45' E 028°14'0 0.0
2017-May-27 01:55N 59°45' E 028°14'0 0.0
2017-May-27 01:25N 59°45' E 028°14'0 0.0
2017-May-27 00:55N 59°45' E 028°14'0 0.0
2017-May-27 00:25N 59°45' E 028°14'0 0.1
2017-May-26 23:55N 59°45' E 028°14'0 0.0
2017-May-26 23:25N 59°45' E 028°14'0 0.0
2017-May-26 22:55N 59°45' E 028°14'0 0.0
2017-May-26 22:25N 59°45' E 028°14'0 0.0
2017-May-26 21:58N 59°45' E 028°14'0 0.0
2017-May-26 21:22N 59°45' E 028°14'0 0.0
2017-May-26 20:58N 59°45' E 028°14'0 0.0
2017-May-26 20:28N 59°45' E 028°14'0 0.0
2017-May-26 19:58N 59°45' E 028°14'0 0.0
2017-May-26 19:28N 59°45' E 028°14'0 0.0
2017-May-26 18:58N 59°45' E 028°14'0 0.0
2017-May-26 18:28N 59°45' E 028°14'0 0.0
2017-May-26 17:42N 59°45' E 028°14'0 0.0
2017-May-26 17:27N 59°45' E 028°14'0 0.0
2017-May-26 17:00N 59°45' E 028°14'0 0.0
2017-May-26 16:30N 59°45' E 028°14'0 0.0
2017-May-26 16:00N 59°45' E 028°14'0 0.1
2017-May-26 15:30N 59°45' E 028°14'0 0.1
2017-May-26 15:00N 59°45' E 028°14'0 0.0
2017-May-26 14:00N 59°45' E 028°14'0 0.0
2017-May-26 13:30N 59°45' E 028°14'0 0.0
2017-May-26 13:00N 59°45' E 028°14'0 0.7
2017-May-26 12:30N 59°46' E 028°14'510.4
2017-May-26 12:00N 59°51' E 028°11'510.9
2017-May-26 11:30N 59°56' E 028°09'510.8
2017-May-26 11:00N 60°02' E 028°07'510.9
2017-May-26 10:30N 60°07' E 028°05'5 9.5
2017-May-26 10:00N 60°09' E 027°57'510.9
2017-May-26 09:30N 60°11' E 027°47'510.6
2017-May-26 09:00N 60°08' E 027°37'510.5
2017-May-26 08:30N 60°05' E 027°28'510.5
2017-May-26 08:00N 60°02' E 027°19'510.4
2017-May-26 07:30N 59°60' E 027°10'510.3
2017-May-26 07:00N 59°58' E 027°01'510.9
2017-May-26 06:30N 59°59' E 026°50'510.9
2017-May-26 06:00N 59°59' E 026°39'511.0
2017-May-26 05:30N 59°58' E 026°29'510.8
2017-May-26 05:00N 59°56' E 026°18'710.4
2017-May-26 04:18N 59°54' E 026°04'810.5
2017-May-26 03:35N 59°52' E 025°50'110.7
2017-May-26 03:30N 59°52' E 025°48'5410.7
2017-May-25 22:30N 59°40' E 024°04'510.7
2017-May-25 22:00N 59°38' E 023°54'611.0
2017-May-25 21:30N 59°36' E 023°44'511.0
2017-May-25 21:00N 59°35' E 023°33'610.8
2017-May-25 20:29N 59°33' E 023°23'1010.7
2017-May-25 19:31N 59°30' E 023°03'22610.4
2017-May-24 21:47N 56°42' E 018°16'610.9
2017-May-24 21:14N 56°39' E 018°08'310.9
2017-May-24 20:57N 56°37' E 018°03'510.8
2017-May-24 20:30N 56°34' E 017°56'710.9
2017-May-24 19:50N 56°29' E 017°46'410.8
2017-May-24 19:30N 56°27' E 017°41'510.8
2017-May-24 19:00N 56°24' E 017°33'610.9
2017-May-24 18:28N 56°20' E 017°25'511.0
2017-May-24 18:00N 56°17' E 017°18'611.0
2017-May-24 17:30N 56°14' E 017°10'611.0
2017-May-24 17:00N 56°10' E 017°02'510.9
2017-May-24 16:30N 56°07' E 016°54'511.0
2017-May-24 16:00N 56°04' E 016°46'510.9
2017-May-24 15:30N 56°01' E 016°38'510.9
2017-May-24 15:00N 55°58' E 016°30'510.9
2017-May-24 14:30N 55°55' E 016°21'1110.7
2017-May-24 13:30N 55°50' E 016°04'510.5
2017-May-24 13:00N 55°48' E 015°56'510.6
2017-May-24 12:30N 55°45' E 015°48'510.6
2017-May-24 12:00N 55°43' E 015°40'510.2
2017-May-24 11:30N 55°40' E 015°32'510.4
2017-May-24 11:00N 55°38' E 015°24'510.4
2017-May-24 10:30N 55°35' E 015°16'510.5
2017-May-24 10:00N 55°33' E 015°07'510.6
2017-May-24 09:30N 55°30' E 014°59'510.7
2017-May-24 09:00N 55°28' E 014°51'510.6
2017-May-24 08:30N 55°25' E 014°43'510.6
2017-May-24 08:00N 55°22' E 014°36'510.8
2017-May-24 07:30N 55°17' E 014°29'611.1
2017-May-24 07:00N 55°13' E 014°23'5 9.9
2017-May-24 06:30N 55°11' E 014°16'510.6
2017-May-24 06:00N 55°11' E 014°07'510.7
2017-May-24 05:30N 55°11' E 013°57'510.6
2017-May-24 05:00N 55°12' E 013°48'610.6
2017-May-24 04:28N 55°12' E 013°38'510.5
2017-May-24 04:00N 55°13' E 013°30'810.6
2017-May-24 03:16N 55°13' E 013°16'910.8
2017-May-24 02:24N 55°14' E 012°60'410.8
2017-May-24 02:00N 55°15' E 012°52'510.8
2017-May-24 01:30N 55°17' E 012°43'4 7.8
2017-May-24 01:00N 55°19' E 012°38'510.3
2017-May-24 00:30N 55°24' E 012°39'510.3
2017-May-24 00:00N 55°29' E 012°41'510.2
2017-May-23 23:30N 55°34' E 012°42'510.4
2017-May-23 23:00N 55°40' E 012°41'510.4
2017-May-23 22:30N 55°45' E 012°41'510.5
2017-May-23 22:00N 55°50' E 012°40'510.3
2017-May-23 21:30N 55°55' E 012°39'510.0
2017-May-23 21:00N 55°59' E 012°43'1 2.0
2017-May-23 20:28N 56°00' E 012°43'0 0.0
2017-May-23 19:58N 56°00' E 012°43'0 0.0
2017-May-23 19:28N 56°00' E 012°43'0 0.0
2017-May-23 18:58N 56°00' E 012°43'0 0.0
2017-May-23 18:28N 56°00' E 012°43'0 0.0
2017-May-23 17:58N 56°00' E 012°43'0 0.0
2017-May-23 17:28N 56°00' E 012°43'0 0.0
2017-May-23 16:58N 56°00' E 012°43'0 0.0
2017-May-23 16:28N 56°00' E 012°43'0 0.0
2017-May-23 15:58N 56°00' E 012°43'0 0.0
2017-May-23 15:28N 56°00' E 012°43'0 0.0
2017-May-23 14:58N 56°00' E 012°43'0 0.0
2017-May-23 14:28N 56°00' E 012°43'0 0.0
2017-May-23 13:28N 56°00' E 012°43'0 0.0
2017-May-23 12:58N 56°00' E 012°43'0 0.0
2017-May-23 12:28N 56°00' E 012°43'0 0.0
2017-May-23 11:58N 56°00' E 012°43'0 0.0
2017-May-23 11:28N 56°00' E 012°43'0 0.0
2017-May-23 10:58N 56°00' E 012°43'0 0.0
2017-May-23 10:28N 56°00' E 012°43'0 0.0
2017-May-23 09:58N 56°00' E 012°43'0 0.0
2017-May-23 09:28N 56°00' E 012°43'0 0.0
2017-May-23 08:58N 56°00' E 012°43'0 0.0
2017-May-23 08:28N 56°00' E 012°43'0 0.0
2017-May-23 07:58N 56°00' E 012°43'0 0.0
2017-May-23 07:28N 56°00' E 012°43'0 0.0
2017-May-23 06:52N 56°00' E 012°43'0 0.0
2017-May-23 06:28N 56°00' E 012°43'0 0.0
2017-May-23 05:52N 56°00' E 012°43'0 0.0
2017-May-23 05:28N 56°00' E 012°43'0 0.0
2017-May-23 05:01N 56°00' E 012°43'0 0.0
2017-May-23 04:30N 56°00' E 012°43'0 0.0
2017-May-23 04:00N 56°00' E 012°43'0 0.0
2017-May-23 03:27N 56°00' E 012°43'0 0.0
2017-May-23 03:00N 56°00' E 012°43'0 0.0
2017-May-23 02:30N 56°00' E 012°43'0 0.0
2017-May-23 02:00N 56°00' E 012°43'0 0.0
2017-May-23 01:30N 56°00' E 012°43'0 0.0
2017-May-23 01:00N 56°00' E 012°43'0 0.0
2017-May-23 00:30N 56°00' E 012°43'0 0.0
2017-May-23 00:00N 56°00' E 012°43'0 0.0
2017-May-22 23:30N 56°00' E 012°43'0 0.0
2017-May-22 23:00N 56°00' E 012°43'0 0.0
2017-May-22 22:30N 56°00' E 012°43'0 0.0
2017-May-22 22:00N 56°00' E 012°43'0 0.0
2017-May-22 21:30N 56°00' E 012°43'0 0.0
2017-May-22 20:57N 56°00' E 012°43'0 0.0
2017-May-22 20:30N 56°00' E 012°43'0 0.0
2017-May-22 20:00N 56°00' E 012°43'0 0.0
2017-May-22 19:30N 56°00' E 012°43'0 0.0
2017-May-22 19:00N 56°00' E 012°43'0 0.0
2017-May-22 18:30N 56°00' E 012°43'0 0.0
2017-May-22 18:00N 56°00' E 012°43'0 0.0
2017-May-22 17:30N 56°00' E 012°43'0 0.0
2017-May-22 17:00N 56°00' E 012°43'0 0.0
2017-May-22 16:30N 56°00' E 012°43'0 0.0
2017-May-22 16:00N 56°00' E 012°43'0 0.0
2017-May-22 15:30N 56°00' E 012°43'0 0.0
2017-May-22 15:00N 56°00' E 012°43'0 0.0
2017-May-22 14:00N 56°00' E 012°43'0 0.0
2017-May-22 13:30N 56°00' E 012°43'0 0.0
2017-May-22 13:00N 56°00' E 012°43'0 0.0
2017-May-22 12:27N 56°00' E 012°43'0 0.0
2017-May-22 12:00N 56°00' E 012°43'0 0.0
2017-May-22 11:30N 56°00' E 012°43'0 0.0
2017-May-22 11:00N 56°00' E 012°43'0 0.0
2017-May-22 10:30N 56°00' E 012°43'0 0.0
2017-May-22 10:00N 56°00' E 012°43'0 0.0
2017-May-22 09:27N 56°00' E 012°43'0 0.0
2017-May-22 09:00N 56°00' E 012°43'0 0.0
2017-May-22 08:24N 56°00' E 012°43'0 0.0
2017-May-22 08:00N 56°00' E 012°43'0 0.0
2017-May-22 07:30N 56°00' E 012°43'0 0.0
2017-May-22 07:00N 56°00' E 012°43'0 0.0
2017-May-22 06:30N 56°00' E 012°43'0 0.0
2017-May-22 06:00N 56°00' E 012°43'0 0.0
2017-May-22 05:30N 56°00' E 012°43'0 0.0
2017-May-22 05:00N 56°00' E 012°43'0 0.0
2017-May-22 04:30N 56°00' E 012°43'0 0.0
2017-May-22 04:00N 56°00' E 012°43'0 0.0
2017-May-22 03:30N 56°00' E 012°43'0 0.0
2017-May-22 03:00N 56°00' E 012°43'0 0.0
2017-May-22 02:30N 56°00' E 012°43'0 0.0
2017-May-22 02:00N 56°00' E 012°43'0 0.0
2017-May-22 01:30N 56°00' E 012°43'0 0.0
2017-May-22 01:00N 56°00' E 012°43'0 0.0
2017-May-22 00:30N 56°00' E 012°43'0 0.0
2017-May-22 00:00N 56°00' E 012°43'0 0.0
2017-May-21 23:30N 56°00' E 012°43'0 0.0
2017-May-21 23:00N 56°00' E 012°43'0 0.0
2017-May-21 22:30N 56°00' E 012°43'0 0.0
2017-May-21 21:57N 56°00' E 012°43'0 0.0
2017-May-21 21:30N 56°00' E 012°43'0 0.0
2017-May-21 21:00N 56°00' E 012°43'0 0.0
2017-May-21 20:30N 56°00' E 012°43'0 0.0
2017-May-21 20:00N 56°00' E 012°43'0 0.0
2017-May-21 19:29N 56°00' E 012°43'0 0.0
2017-May-21 18:59N 56°00' E 012°43'0 0.0
2017-May-21 18:29N 56°00' E 012°43'0 0.0
2017-May-21 17:59N 56°00' E 012°43'0 0.0
2017-May-21 17:29N 56°00' E 012°43'0 0.0
2017-May-21 16:59N 56°00' E 012°43'0 0.1
2017-May-21 16:31N 56°00' E 012°43'2 3.5
2017-May-21 16:00N 55°59' E 012°43'0 0.6
2017-May-21 15:28N 55°58' E 012°44'0 0.0
2017-May-21 14:58N 55°58' E 012°44'0 0.0
2017-May-21 13:58N 55°58' E 012°44'0 0.0
2017-May-21 13:28N 55°58' E 012°44'0 0.0
2017-May-21 12:58N 55°58' E 012°44'0 0.0
2017-May-21 12:28N 55°58' E 012°43'0 0.0
2017-May-21 11:58N 55°58' E 012°43'0 0.0
2017-May-21 11:28N 55°58' E 012°43'0 0.0
2017-May-21 10:58N 55°58' E 012°43'0 0.0
2017-May-21 10:28N 55°58' E 012°43'0 0.0
2017-May-21 09:58N 55°58' E 012°43'0 0.0
2017-May-21 09:28N 55°58' E 012°43'0 0.0
2017-May-21 08:58N 55°58' E 012°43'0 0.1
2017-May-21 08:28N 55°58' E 012°44'0 0.0
2017-May-21 07:58N 55°58' E 012°44'1 2.4
2017-May-21 07:31N 55°57' E 012°44'4 7.9
2017-May-21 07:01N 55°53' E 012°44'4 8.1
2017-May-21 06:30N 55°49' E 012°43'4 7.6
2017-May-21 06:00N 55°46' E 012°42'4 7.4
2017-May-21 05:31N 55°42' E 012°41'4 7.0
2017-May-21 05:01N 55°38' E 012°42'3 6.6
2017-May-21 04:31N 55°35' E 012°42'3 6.8
2017-May-21 04:01N 55°32' E 012°43'4 7.4
2017-May-21 03:31N 55°28' E 012°43'4 7.6
2017-May-21 03:01N 55°24' E 012°42'4 7.6
2017-May-21 02:30N 55°20' E 012°41'3 6.1
2017-May-21 02:01N 55°18' E 012°44'4 7.4
2017-May-21 01:30N 55°17' E 012°50'4 7.4
2017-May-21 01:00N 55°16' E 012°57'4 7.4
2017-May-21 00:31N 55°16' E 013°03'4 7.5
2017-May-21 00:00N 55°15' E 013°10'4 7.5
2017-May-20 23:30N 55°15' E 013°16'4 7.6
2017-May-20 23:00N 55°15' E 013°23'4 7.7
2017-May-20 22:30N 55°15' E 013°30'4 8.0
2017-May-20 21:59N 55°15' E 013°37'4 8.0
2017-May-20 21:30N 55°15' E 013°44'4 7.7
2017-May-20 21:00N 55°14' E 013°51'4 7.6
2017-May-20 20:29N 55°14' E 013°58'4 7.5
2017-May-20 20:00N 55°14' E 014°04'4 7.7
2017-May-20 19:30N 55°14' E 014°11'4 7.0
2017-May-20 18:58N 55°15' E 014°17'4 7.7
2017-May-20 18:30N 55°17' E 014°22'4 7.8
2017-May-20 18:00N 55°20' E 014°27'4 7.9
2017-May-20 17:29N 55°23' E 014°32'4 7.8
2017-May-20 17:00N 55°25' E 014°37'4 7.8
2017-May-20 16:30N 55°27' E 014°42'4 8.0
2017-May-20 16:00N 55°30' E 014°48'4 7.8
2017-May-20 15:30N 55°32' E 014°54'4 7.4
2017-May-20 15:00N 55°34' E 014°60'7 6.8
2017-May-20 14:01N 55°37' E 015°10'3 6.9
2017-May-20 13:30N 55°39' E 015°15'4 7.2
2017-May-20 13:00N 55°41' E 015°21'4 7.2
2017-May-20 12:31N 55°43' E 015°26'4 7.2
2017-May-20 12:00N 55°45' E 015°31'4 7.3
2017-May-20 11:30N 55°47' E 015°37'4 7.2
2017-May-20 11:00N 55°48' E 015°42'4 7.2
2017-May-20 10:31N 55°50' E 015°48'4 7.9
2017-May-20 10:01N 55°52' E 015°54'4 8.2
2017-May-20 09:31N 55°55' E 016°00'4 8.1
2017-May-20 09:01N 55°57' E 016°06'4 8.2
2017-May-20 08:31N 55°59' E 016°13'4 8.0
2017-May-20 08:00N 56°01' E 016°19'4 8.0
2017-May-20 07:31N 56°03' E 016°25'4 8.3
2017-May-20 07:01N 56°05' E 016°31'4 8.4
2017-May-20 06:31N 56°07' E 016°38'4 8.0
2017-May-20 06:00N 56°10' E 016°43'4 8.2
2017-May-20 05:30N 56°14' E 016°46'4 8.3
2017-May-20 05:01N 56°17' E 016°49'4 8.3
2017-May-20 04:31N 56°21' E 016°52'4 8.3
2017-May-20 04:00N 56°25' E 016°54'4 8.5
2017-May-20 03:31N 56°29' E 016°57'4 8.4
2017-May-20 03:01N 56°33' E 017°00'4 8.4
2017-May-20 02:30N 56°37' E 017°03'4 8.4
2017-May-20 02:01N 56°41' E 017°06'4 8.5
2017-May-20 01:31N 56°45' E 017°08'4 8.5
2017-May-20 01:00N 56°49' E 017°11'24 0.6
2017-May-18 11:22N 57°09' E 017°35'1210.8
2017-May-18 10:18N 56°58' E 017°28'310.7
2017-May-18 10:00N 56°55' E 017°25'610.8
2017-May-18 09:28N 56°50' E 017°21'510.9
2017-May-18 09:00N 56°45' E 017°18'610.8
2017-May-18 08:30N 56°40' E 017°14'510.8
2017-May-18 08:00N 56°35' E 017°10'510.7
2017-May-18 07:30N 56°30' E 017°07'510.8
2017-May-18 07:00N 56°25' E 017°03'510.7
2017-May-18 06:30N 56°20' E 016°60'510.7
2017-May-18 06:00N 56°15' E 016°56'510.8
2017-May-18 05:30N 56°10' E 016°53'510.6
2017-May-18 05:00N 56°06' E 016°48'510.8
2017-May-18 04:31N 56°02' E 016°41'510.8
2017-May-18 04:00N 55°57' E 016°35'510.8
2017-May-18 03:31N 55°53' E 016°30'510.8
2017-May-18 03:01N 55°48' E 016°25'510.8
2017-May-18 02:30N 55°44' E 016°19'510.9
2017-May-18 02:00N 55°39' E 016°14'510.9
2017-May-18 01:30N 55°35' E 016°08'510.8
2017-May-18 01:00N 55°31' E 016°03'510.8
2017-May-18 00:30N 55°27' E 015°56'510.9
2017-May-18 00:01N 55°22' E 015°51'611.0
2017-May-17 23:30N 55°17' E 015°46'611.2
2017-May-17 22:58N 55°12' E 015°41'1111.0
2017-May-17 21:58N 55°02' E 015°32'1210.9
2017-May-17 20:52N 54°52' E 015°22'  
Track history (hours):
 
Tides and Currents Weather Stations Pressure Air Temp Water Temp Dewpoint Dewpoint Depression Visibility Wind Speed Wind Dir Waves Ship Positions

Vingaren

Last reported at 2017-May-27 03:52 UTC. Time now 2017-May-27 04:20 UTC.
Position N 59°45' E 028°14'.

Length 89 m; draft 3.8 m.

Type: Cargo ship. MMSI: 231844000.

Date/timePositionNaut miles runAvg speedWind from/ knotsBaromVisibWave heightAir tempDewpointWater temp
2017-May-27 03:52N 59°45' E 028°14'0 0.0
2017-May-27 03:25N 59°45' E 028°14'0 0.0
2017-May-27 02:55N 59°45' E 028°14'0 0.0
2017-May-27 02:25N 59°45' E 028°14'0 0.0
2017-May-27 01:55N 59°45' E 028°14'0 0.0
2017-May-27 01:25N 59°45' E 028°14'0 0.0
2017-May-27 00:55N 59°45' E 028°14'0 0.0
2017-May-27 00:25N 59°45' E 028°14'0 0.1
2017-May-26 23:55N 59°45' E 028°14'0 0.0
2017-May-26 23:25N 59°45' E 028°14'0 0.0
2017-May-26 22:55N 59°45' E 028°14'0 0.0
2017-May-26 22:25N 59°45' E 028°14'0 0.0
2017-May-26 21:58N 59°45' E 028°14'0 0.0
2017-May-26 21:22N 59°45' E 028°14'0 0.0
2017-May-26 20:58N 59°45' E 028°14'0 0.0
2017-May-26 20:28N 59°45' E 028°14'0 0.0
2017-May-26 19:58N 59°45' E 028°14'0 0.0
2017-May-26 19:28N 59°45' E 028°14'0 0.0
2017-May-26 18:58N 59°45' E 028°14'0 0.0
2017-May-26 18:28N 59°45' E 028°14'0 0.0
2017-May-26 17:42N 59°45' E 028°14'0 0.0
2017-May-26 17:27N 59°45' E 028°14'0 0.0
2017-May-26 17:00N 59°45' E 028°14'0 0.0
2017-May-26 16:30N 59°45' E 028°14'0 0.0
2017-May-26 16:00N 59°45' E 028°14'0 0.1
2017-May-26 15:30N 59°45' E 028°14'0 0.1
2017-May-26 15:00N 59°45' E 028°14'0 0.0
2017-May-26 14:00N 59°45' E 028°14'0 0.0
2017-May-26 13:30N 59°45' E 028°14'0 0.0
2017-May-26 13:00N 59°45' E 028°14'0 0.7
2017-May-26 12:30N 59°46' E 028°14'510.4
2017-May-26 12:00N 59°51' E 028°11'510.9
2017-May-26 11:30N 59°56' E 028°09'510.8
2017-May-26 11:00N 60°02' E 028°07'510.9
2017-May-26 10:30N 60°07' E 028°05'5 9.5
2017-May-26 10:00N 60°09' E 027°57'510.9
2017-May-26 09:30N 60°11' E 027°47'510.6
2017-May-26 09:00N 60°08' E 027°37'510.5
2017-May-26 08:30N 60°05' E 027°28'510.5
2017-May-26 08:00N 60°02' E 027°19'510.4
2017-May-26 07:30N 59°60' E 027°10'510.3
2017-May-26 07:00N 59°58' E 027°01'510.9
2017-May-26 06:30N 59°59' E 026°50'510.9
2017-May-26 06:00N 59°59' E 026°39'511.0
2017-May-26 05:30N 59°58' E 026°29'510.8
2017-May-26 05:00N 59°56' E 026°18'710.4
2017-May-26 04:18N 59°54' E 026°04'810.5
2017-May-26 03:35N 59°52' E 025°50'110.7
2017-May-26 03:30N 59°52' E 025°48'5410.7
2017-May-25 22:30N 59°40' E 024°04'510.7
2017-May-25 22:00N 59°38' E 023°54'611.0
2017-May-25 21:30N 59°36' E 023°44'511.0
2017-May-25 21:00N 59°35' E 023°33'610.8
2017-May-25 20:29N 59°33' E 023°23'1010.7
2017-May-25 19:31N 59°30' E 023°03'22610.4
2017-May-24 21:47N 56°42' E 018°16'610.9
2017-May-24 21:14N 56°39' E 018°08'310.9
2017-May-24 20:57N 56°37' E 018°03'510.8
2017-May-24 20:30N 56°34' E 017°56'710.9
2017-May-24 19:50N 56°29' E 017°46'410.8
2017-May-24 19:30N 56°27' E 017°41'510.8
2017-May-24 19:00N 56°24' E 017°33'610.9
2017-May-24 18:28N 56°20' E 017°25'511.0
2017-May-24 18:00N 56°17' E 017°18'611.0
2017-May-24 17:30N 56°14' E 017°10'611.0
2017-May-24 17:00N 56°10' E 017°02'510.9
2017-May-24 16:30N 56°07' E 016°54'511.0
2017-May-24 16:00N 56°04' E 016°46'510.9
2017-May-24 15:30N 56°01' E 016°38'510.9
2017-May-24 15:00N 55°58' E 016°30'510.9
2017-May-24 14:30N 55°55' E 016°21'1110.7
2017-May-24 13:30N 55°50' E 016°04'510.5
2017-May-24 13:00N 55°48' E 015°56'510.6
2017-May-24 12:30N 55°45' E 015°48'510.6
2017-May-24 12:00N 55°43' E 015°40'510.2
2017-May-24 11:30N 55°40' E 015°32'510.4
2017-May-24 11:00N 55°38' E 015°24'510.4
2017-May-24 10:30N 55°35' E 015°16'510.5
2017-May-24 10:00N 55°33' E 015°07'510.6
2017-May-24 09:30N 55°30' E 014°59'510.7
2017-May-24 09:00N 55°28' E 014°51'510.6
2017-May-24 08:30N 55°25' E 014°43'510.6
2017-May-24 08:00N 55°22' E 014°36'510.8
2017-May-24 07:30N 55°17' E 014°29'611.1
2017-May-24 07:00N 55°13' E 014°23'5 9.9
2017-May-24 06:30N 55°11' E 014°16'510.6
2017-May-24 06:00N 55°11' E 014°07'510.7
2017-May-24 05:30N 55°11' E 013°57'510.6
2017-May-24 05:00N 55°12' E 013°48'610.6
2017-May-24 04:28N 55°12' E 013°38'510.5
2017-May-24 04:00N 55°13' E 013°30'810.6
2017-May-24 03:16N 55°13' E 013°16'910.8
2017-May-24 02:24N 55°14' E 012°60'410.8
2017-May-24 02:00N 55°15' E 012°52'510.8
2017-May-24 01:30N 55°17' E 012°43'4 7.8
2017-May-24 01:00N 55°19' E 012°38'510.3
2017-May-24 00:30N 55°24' E 012°39'510.3
2017-May-24 00:00N 55°29' E 012°41'510.2
2017-May-23 23:30N 55°34' E 012°42'510.4
2017-May-23 23:00N 55°40' E 012°41'510.4
2017-May-23 22:30N 55°45' E 012°41'510.5
2017-May-23 22:00N 55°50' E 012°40'510.3
2017-May-23 21:30N 55°55' E 012°39'510.0
2017-May-23 21:00N 55°59' E 012°43'1 2.0
2017-May-23 20:28N 56°00' E 012°43'0 0.0
2017-May-23 19:58N 56°00' E 012°43'0 0.0
2017-May-23 19:28N 56°00' E 012°43'0 0.0
2017-May-23 18:58N 56°00' E 012°43'0 0.0
2017-May-23 18:28N 56°00' E 012°43'0 0.0
2017-May-23 17:58N 56°00' E 012°43'0 0.0
2017-May-23 17:28N 56°00' E 012°43'0 0.0
2017-May-23 16:58N 56°00' E 012°43'0 0.0
2017-May-23 16:28N 56°00' E 012°43'0 0.0
2017-May-23 15:58N 56°00' E 012°43'0 0.0
2017-May-23 15:28N 56°00' E 012°43'0 0.0
2017-May-23 14:58N 56°00' E 012°43'0 0.0
2017-May-23 14:28N 56°00' E 012°43'0 0.0
2017-May-23 13:28N 56°00' E 012°43'0 0.0
2017-May-23 12:58N 56°00' E 012°43'0 0.0
2017-May-23 12:28N 56°00' E 012°43'0 0.0
2017-May-23 11:58N 56°00' E 012°43'0 0.0
2017-May-23 11:28N 56°00' E 012°43'0 0.0
2017-May-23 10:58N 56°00' E 012°43'0 0.0
2017-May-23 10:28N 56°00' E 012°43'0 0.0
2017-May-23 09:58N 56°00' E 012°43'0 0.0
2017-May-23 09:28N 56°00' E 012°43'0 0.0
2017-May-23 08:58N 56°00' E 012°43'0 0.0
2017-May-23 08:28N 56°00' E 012°43'0 0.0
2017-May-23 07:58N 56°00' E 012°43'0 0.0
2017-May-23 07:28N 56°00' E 012°43'0 0.0
2017-May-23 06:52N 56°00' E 012°43'0 0.0
2017-May-23 06:28N 56°00' E 012°43'0 0.0
2017-May-23 05:52N 56°00' E 012°43'0 0.0
2017-May-23 05:28N 56°00' E 012°43'0 0.0
2017-May-23 05:01N 56°00' E 012°43'0 0.0
2017-May-23 04:30N 56°00' E 012°43'0 0.0
2017-May-23 04:00N 56°00' E 012°43'0 0.0
2017-May-23 03:27N 56°00' E 012°43'0 0.0
2017-May-23 03:00N 56°00' E 012°43'0 0.0
2017-May-23 02:30N 56°00' E 012°43'0 0.0
2017-May-23 02:00N 56°00' E 012°43'0 0.0
2017-May-23 01:30N 56°00' E 012°43'0 0.0
2017-May-23 01:00N 56°00' E 012°43'0 0.0
2017-May-23 00:30N 56°00' E 012°43'0 0.0
2017-May-23 00:00N 56°00' E 012°43'0 0.0
2017-May-22 23:30N 56°00' E 012°43'0 0.0
2017-May-22 23:00N 56°00' E 012°43'0 0.0
2017-May-22 22:30N 56°00' E 012°43'0 0.0
2017-May-22 22:00N 56°00' E 012°43'0 0.0
2017-May-22 21:30N 56°00' E 012°43'0 0.0
2017-May-22 20:57N 56°00' E 012°43'0 0.0
2017-May-22 20:30N 56°00' E 012°43'0 0.0
2017-May-22 20:00N 56°00' E 012°43'0 0.0
2017-May-22 19:30N 56°00' E 012°43'0 0.0
2017-May-22 19:00N 56°00' E 012°43'0 0.0
2017-May-22 18:30N 56°00' E 012°43'0 0.0
2017-May-22 18:00N 56°00' E 012°43'0 0.0
2017-May-22 17:30N 56°00' E 012°43'0 0.0
2017-May-22 17:00N 56°00' E 012°43'0 0.0
2017-May-22 16:30N 56°00' E 012°43'0 0.0
2017-May-22 16:00N 56°00' E 012°43'0 0.0
2017-May-22 15:30N 56°00' E 012°43'0 0.0
2017-May-22 15:00N 56°00' E 012°43'0 0.0
2017-May-22 14:00N 56°00' E 012°43'0 0.0
2017-May-22 13:30N 56°00' E 012°43'0 0.0
2017-May-22 13:00N 56°00' E 012°43'0 0.0
2017-May-22 12:27N 56°00' E 012°43'0 0.0
2017-May-22 12:00N 56°00' E 012°43'0 0.0
2017-May-22 11:30N 56°00' E 012°43'0 0.0
2017-May-22 11:00N 56°00' E 012°43'0 0.0
2017-May-22 10:30N 56°00' E 012°43'0 0.0
2017-May-22 10:00N 56°00' E 012°43'0 0.0
2017-May-22 09:27N 56°00' E 012°43'0 0.0
2017-May-22 09:00N 56°00' E 012°43'0 0.0
2017-May-22 08:24N 56°00' E 012°43'0 0.0
2017-May-22 08:00N 56°00' E 012°43'0 0.0
2017-May-22 07:30N 56°00' E 012°43'0 0.0
2017-May-22 07:00N 56°00' E 012°43'0 0.0
2017-May-22 06:30N 56°00' E 012°43'0 0.0
2017-May-22 06:00N 56°00' E 012°43'0 0.0
2017-May-22 05:30N 56°00' E 012°43'0 0.0
2017-May-22 05:00N 56°00' E 012°43'0 0.0
2017-May-22 04:30N 56°00' E 012°43'0 0.0
2017-May-22 04:00N 56°00' E 012°43'0 0.0
2017-May-22 03:30N 56°00' E 012°43'0 0.0
2017-May-22 03:00N 56°00' E 012°43'0 0.0
2017-May-22 02:30N 56°00' E 012°43'0 0.0
2017-May-22 02:00N 56°00' E 012°43'0 0.0
2017-May-22 01:30N 56°00' E 012°43'0 0.0
2017-May-22 01:00N 56°00' E 012°43'0 0.0
2017-May-22 00:30N 56°00' E 012°43'0 0.0
2017-May-22 00:00N 56°00' E 012°43'0 0.0
2017-May-21 23:30N 56°00' E 012°43'0 0.0
2017-May-21 23:00N 56°00' E 012°43'0 0.0
2017-May-21 22:30N 56°00' E 012°43'0 0.0
2017-May-21 21:57N 56°00' E 012°43'0 0.0
2017-May-21 21:30N 56°00' E 012°43'0 0.0
2017-May-21 21:00N 56°00' E 012°43'0 0.0
2017-May-21 20:30N 56°00' E 012°43'0 0.0
2017-May-21 20:00N 56°00' E 012°43'0 0.0
2017-May-21 19:29N 56°00' E 012°43'0 0.0
2017-May-21 18:59N 56°00' E 012°43'0 0.0
2017-May-21 18:29N 56°00' E 012°43'0 0.0
2017-May-21 17:59N 56°00' E 012°43'0 0.0
2017-May-21 17:29N 56°00' E 012°43'0 0.0
2017-May-21 16:59N 56°00' E 012°43'0 0.1
2017-May-21 16:31N 56°00' E 012°43'2 3.5
2017-May-21 16:00N 55°59' E 012°43'0 0.6
2017-May-21 15:28N 55°58' E 012°44'0 0.0
2017-May-21 14:58N 55°58' E 012°44'0 0.0
2017-May-21 13:58N 55°58' E 012°44'0 0.0
2017-May-21 13:28N 55°58' E 012°44'0 0.0
2017-May-21 12:58N 55°58' E 012°44'0 0.0
2017-May-21 12:28N 55°58' E 012°43'0 0.0
2017-May-21 11:58N 55°58' E 012°43'0 0.0
2017-May-21 11:28N 55°58' E 012°43'0 0.0
2017-May-21 10:58N 55°58' E 012°43'0 0.0
2017-May-21 10:28N 55°58' E 012°43'0 0.0
2017-May-21 09:58N 55°58' E 012°43'0 0.0
2017-May-21 09:28N 55°58' E 012°43'0 0.0
2017-May-21 08:58N 55°58' E 012°43'0 0.1
2017-May-21 08:28N 55°58' E 012°44'0 0.0
2017-May-21 07:58N 55°58' E 012°44'1 2.4
2017-May-21 07:31N 55°57' E 012°44'4 7.9
2017-May-21 07:01N 55°53' E 012°44'4 8.1
2017-May-21 06:30N 55°49' E 012°43'4 7.6
2017-May-21 06:00N 55°46' E 012°42'4 7.4
2017-May-21 05:31N 55°42' E 012°41'4 7.0
2017-May-21 05:01N 55°38' E 012°42'3 6.6
2017-May-21 04:31N 55°35' E 012°42'3 6.8
2017-May-21 04:01N 55°32' E 012°43'4 7.4
2017-May-21 03:31N 55°28' E 012°43'4 7.6
2017-May-21 03:01N 55°24' E 012°42'4 7.6
2017-May-21 02:30N 55°20' E 012°41'3 6.1
2017-May-21 02:01N 55°18' E 012°44'4 7.4
2017-May-21 01:30N 55°17' E 012°50'4 7.4
2017-May-21 01:00N 55°16' E 012°57'4 7.4
2017-May-21 00:31N 55°16' E 013°03'4 7.5
2017-May-21 00:00N 55°15' E 013°10'4 7.5
2017-May-20 23:30N 55°15' E 013°16'4 7.6
2017-May-20 23:00N 55°15' E 013°23'4 7.7
2017-May-20 22:30N 55°15' E 013°30'4 8.0
2017-May-20 21:59N 55°15' E 013°37'4 8.0
2017-May-20 21:30N 55°15' E 013°44'4 7.7
2017-May-20 21:00N 55°14' E 013°51'4 7.6
2017-May-20 20:29N 55°14' E 013°58'4 7.5
2017-May-20 20:00N 55°14' E 014°04'4 7.7
2017-May-20 19:30N 55°14' E 014°11'4 7.0
2017-May-20 18:58N 55°15' E 014°17'4 7.7
2017-May-20 18:30N 55°17' E 014°22'4 7.8
2017-May-20 18:00N 55°20' E 014°27'4 7.9
2017-May-20 17:29N 55°23' E 014°32'4 7.8
2017-May-20 17:00N 55°25' E 014°37'4 7.8
2017-May-20 16:30N 55°27' E 014°42'4 8.0
2017-May-20 16:00N 55°30' E 014°48'4 7.8
2017-May-20 15:30N 55°32' E 014°54'4 7.4
2017-May-20 15:00N 55°34' E 014°60'7 6.8
2017-May-20 14:01N 55°37' E 015°10'3 6.9
2017-May-20 13:30N 55°39' E 015°15'4 7.2
2017-May-20 13:00N 55°41' E 015°21'4 7.2
2017-May-20 12:31N 55°43' E 015°26'4 7.2
2017-May-20 12:00N 55°45' E 015°31'4 7.3
2017-May-20 11:30N 55°47' E 015°37'4 7.2
2017-May-20 11:00N 55°48' E 015°42'4 7.2
2017-May-20 10:31N 55°50' E 015°48'4 7.9
2017-May-20 10:01N 55°52' E 015°54'4 8.2
2017-May-20 09:31N 55°55' E 016°00'4 8.1
2017-May-20 09:01N 55°57' E 016°06'4 8.2
2017-May-20 08:31N 55°59' E 016°13'4 8.0
2017-May-20 08:00N 56°01' E 016°19'4 8.0
2017-May-20 07:31N 56°03' E 016°25'4 8.3
2017-May-20 07:01N 56°05' E 016°31'4 8.4
2017-May-20 06:31N 56°07' E 016°38'4 8.0
2017-May-20 06:00N 56°10' E 016°43'4 8.2
2017-May-20 05:30N 56°14' E 016°46'4 8.3
2017-May-20 05:01N 56°17' E 016°49'4 8.3
2017-May-20 04:31N 56°21' E 016°52'4 8.3
2017-May-20 04:00N 56°25' E 016°54'4 8.5
2017-May-20 03:31N 56°29' E 016°57'4 8.4
2017-May-20 03:01N 56°33' E 017°00'4 8.4
2017-May-20 02:30N 56°37' E 017°03'4 8.4
2017-May-20 02:01N 56°41' E 017°06'4 8.5
2017-May-20 01:31N 56°45' E 017°08'4 8.5
2017-May-20 01:00N 56°49' E 017°11'24 0.6
2017-May-18 11:22N 57°09' E 017°35'1210.8
2017-May-18 10:18N 56°58' E 017°28'310.7
2017-May-18 10:00N 56°55' E 017°25'610.8
2017-May-18 09:28N 56°50' E 017°21'510.9
2017-May-18 09:00N 56°45' E 017°18'610.8
2017-May-18 08:30N 56°40' E 017°14'510.8
2017-May-18 08:00N 56°35' E 017°10'510.7
2017-May-18 07:30N 56°30' E 017°07'510.8
2017-May-18 07:00N 56°25' E 017°03'510.7
2017-May-18 06:30N 56°20' E 016°60'510.7
2017-May-18 06:00N 56°15' E 016°56'510.8
2017-May-18 05:30N 56°10' E 016°53'510.6
2017-May-18 05:00N 56°06' E 016°48'510.8
2017-May-18 04:31N 56°02' E 016°41'510.8
2017-May-18 04:00N 55°57' E 016°35'510.8
2017-May-18 03:31N 55°53' E 016°30'510.8
2017-May-18 03:01N 55°48' E 016°25'510.8
2017-May-18 02:30N 55°44' E 016°19'510.9
2017-May-18 02:00N 55°39' E 016°14'510.9
2017-May-18 01:30N 55°35' E 016°08'510.8
2017-May-18 01:00N 55°31' E 016°03'510.8
2017-May-18 00:30N 55°27' E 015°56'510.9
2017-May-18 00:01N 55°22' E 015°51'611.0
2017-May-17 23:30N 55°17' E 015°46'611.2
2017-May-17 22:58N 55°12' E 015°41'1111.0
2017-May-17 21:58N 55°02' E 015°32'1210.9
2017-May-17 20:52N 54°52' E 015°22'  

Dump ship's entire track history